Roatan, Honduras

3:08 AM CST on July 25, 2014 (GMT -0600)
Calabash Bight (IROATANB2) Elev 96 ft | 16.40 °N, 86.34 °W | Change Station

Current weather conditions updated 14 minutes ago

Thunderstorm
Thunderstorm
80.0 °F
Feels Like 85 °F
N
0.0
Wind Variable Wind from NW
Gusts 6.0 mph

Today is forecast to be nearly the same temperature as yesterday. A few thunderstorms possible.

Today
High -- | Low -- °F
--% Chance of Precip.
Yesterday
High -- | Low -- °F
Precip. -- in
5:24 AM 6:20 PM
Waning Crescent, 2% visible
Pressure 29.92 in
Visibility 6.2 miles
Clouds Scattered Clouds 2200 ft
Mostly Cloudy 8000 ft
Heat Index 85 °F
Dew Point 76 °F
Humidity 88%
Rainfall 0.00 in
Snow Depth Not available.
UV 0 out of 12
Pollen Not available.
Air Quality Not available.
Flu Activity Not available.
METAR MHLC 250800Z 02012KT 9999 TS SCT022CB BKN080 27/25 Q1013 A2992 NOSIG

More Conditions Fewer Conditions

Pressure 29.92 in
Visibility 6.2 miles
Clouds Scattered Clouds 2200 ft
Mostly Cloudy 8000 ft
Heat Index 85 °F
Dew Point 76 °F
Humidity 88%
Rainfall 0.00 in
Snow Depth Not available.
UV 0 out of 12
Pollen Not available.
Air Quality Not available.
Flu Activity Not available.
METAR MHLC 250800Z 02012KT 9999 TS SCT022CB BKN080 27/25 Q1013 A2992 NOSIG

More Conditions Fewer Conditions

10-Day Weather Forecast

Almanac

Astronomy

Jul. 25, 2014 Rise Set
Actual Time 5:24 AM CST 6:20 PM CST
Civil Twilight 5:01 AM CST 6:43 PM CST
Nautical Twilight 4:34 AM CST 7:10 PM CST
Astronomical Twilight 4:06 AM CST 7:38 PM CST
Moon 4:18 AM CST 5:24 PM CST
Length of Visible Light 13h 41m
Length of Day
12h 55m
Tomorrow will be 0m 36s shorter.
Waning Crescent, 2% of the Moon is Illuminated
Today
Waning Crescent
Jul 26
New
Aug 3
First Quarter
Aug 10
Full
Aug 17
Last Quarter

Yesterday's Extremes

Country Highs Country Lows

Community

WunderPhotos

Upload Photos

1,737,276 photos uploaded!

Nearby

Snow Depth

Not available.

Earthquake Activity

City Distance Mag. Time & Date
No recent earthquake activity has been reported nearby.
Minimum magnitude displayed is 2.5.

Coastal Water Temperatures

Place Temperature
No Stations Reporting

Nearby Weather Stations

Station Location Temp. Heat Index Dew Point Humidity Wind Precip. Elev Updated Type
Calabash Bight, Calabash Bight 80.0 °F 85 °F 76 °F 88% NW  at  0.0 mph 0.00 in / hr 96 ft 2:53 AM CST Normal

Show More Stations Show Fewer Stations